Terminal Aerodrome Forecast
Issued by NWS

Home | Current Version | Previous Version | Text Only | Print | Product List | Glossary On
Versions: 1 2 3 4 5 6 7 8 9 10 11 12
346
FTUS42 TJSJ 130530
TAFJBQ
TAF
TJBQ 130530Z 1306/1406 11005KT P6SM FEW060
     FM131400 04008KT P6SM FEW030 FEW050
     FM131730 04010KT P6SM VCSH FEW030 SCT050
     FM132300 11005KT P6SM SCT060
      AMD NOT SKED TIL 131100=

USA.gov is the U.S. government's official web portal to all federal, state and local government web resources and services.